sensor_id;sensor_type;location;lat;lon;timestamp;pressure;altitude;pressure_sealevel;temperature
18161;BMP280;9205;52.032;4.314;2023-01-28T00:02:00;103046.88;;;6.25
18161;BMP280;9205;52.032;4.314;2023-01-28T00:04:27;103054.34;;;6.22
18161;BMP280;9205;52.032;4.314;2023-01-28T00:06:54;103050.19;;;6.23
18161;BMP280;9205;52.032;4.314;2023-01-28T00:09:22;103055.22;;;6.23
18161;BMP280;9205;52.032;4.314;2023-01-28T00:11:49;103052.63;;;6.21
18161;BMP280;9205;52.032;4.314;2023-01-28T00:14:18;103053.53;;;6.23
18161;BMP280;9205;52.032;4.314;2023-01-28T00:16:46;103051.78;;;6.21
18161;BMP280;9205;52.032;4.314;2023-01-28T00:19:13;103042.59;;;6.23
18161;BMP280;9205;52.032;4.314;2023-01-28T00:21:40;103038.44;;;6.25
18161;BMP280;9205;52.032;4.314;2023-01-28T00:24:08;103034.34;;;6.28
18161;BMP280;9205;52.032;4.314;2023-01-28T00:26:36;103039.44;;;6.30
18161;BMP280;9205;52.032;4.314;2023-01-28T00:29:03;103028.53;;;6.31
18161;BMP280;9205;52.032;4.314;2023-01-28T00:31:33;103031.22;;;6.35
18161;BMP280;9205;52.032;4.314;2023-01-28T00:34:00;103033.78;;;6.37
18161;BMP280;9205;52.032;4.314;2023-01-28T00:36:27;103033.66;;;6.34
18161;BMP280;9205;52.032;4.314;2023-01-28T00:38:57;103035.16;;;6.27
18161;BMP280;9205;52.032;4.314;2023-01-28T00:41:27;103029.28;;;6.28
18161;BMP280;9205;52.032;4.314;2023-01-28T00:43:57;103029.97;;;6.23
18161;BMP280;9205;52.032;4.314;2023-01-28T00:46:25;103028.16;;;6.19
18161;BMP280;9205;52.032;4.314;2023-01-28T00:48:54;103039.88;;;6.17
18161;BMP280;9205;52.032;4.314;2023-01-28T00:51:21;103039.94;;;6.19
18161;BMP280;9205;52.032;4.314;2023-01-28T00:53:49;103033.22;;;6.19
18161;BMP280;9205;52.032;4.314;2023-01-28T00:56:17;103044.03;;;6.15
18161;BMP280;9205;52.032;4.314;2023-01-28T00:58:45;103038.78;;;6.09
18161;BMP280;9205;52.032;4.314;2023-01-28T01:01:16;103048.84;;;6.08
18161;BMP280;9205;52.032;4.314;2023-01-28T01:03:43;103048.00;;;6.07
18161;BMP280;9205;52.032;4.314;2023-01-28T01:06:14;103055.72;;;6.12
18161;BMP280;9205;52.032;4.314;2023-01-28T01:08:41;103042.28;;;6.13
18161;BMP280;9205;52.032;4.314;2023-01-28T01:11:17;103044.91;;;6.17
18161;BMP280;9205;52.032;4.314;2023-01-28T01:13:50;103046.56;;;6.15
18161;BMP280;9205;52.032;4.314;2023-01-28T01:16:20;103058.16;;;6.10
18161;BMP280;9205;52.032;4.314;2023-01-28T01:18:49;103054.78;;;6.10
18161;BMP280;9205;52.032;4.314;2023-01-28T01:21:22;103054.66;;;6.05
18161;BMP280;9205;52.032;4.314;2023-01-28T01:23:51;103056.41;;;6.08
18161;BMP280;9205;52.032;4.314;2023-01-28T01:26:19;103048.84;;;6.08
18161;BMP280;9205;52.032;4.314;2023-01-28T01:28:46;103049.31;;;5.96
18161;BMP280;9205;52.032;4.314;2023-01-28T01:31:17;103041.66;;;5.93
18161;BMP280;9205;52.032;4.314;2023-01-28T01:33:46;103044.25;;;5.96
18161;BMP280;9205;52.032;4.314;2023-01-28T01:36:18;103047.69;;;5.98
18161;BMP280;9205;52.032;4.314;2023-01-28T01:38:47;103042.63;;;5.97
18161;BMP280;9205;52.032;4.314;2023-01-28T01:41:27;103044.38;;;5.99
18161;BMP280;9205;52.032;4.314;2023-01-28T01:43:57;103035.78;;;5.94
18161;BMP280;9205;52.032;4.314;2023-01-28T01:46:35;103042.50;;;5.94
18161;BMP280;9205;52.032;4.314;2023-01-28T01:49:16;103046.78;;;5.96
18161;BMP280;9205;52.032;4.314;2023-01-28T01:51:51;103043.28;;;5.91
18161;BMP280;9205;52.032;4.314;2023-01-28T01:54:23;103049.75;;;5.83
18161;BMP280;9205;52.032;4.314;2023-01-28T01:56:52;103044.34;;;5.74
18161;BMP280;9205;52.032;4.314;2023-01-28T01:59:24;103036.81;;;5.76
18161;BMP280;9205;52.032;4.314;2023-01-28T02:01:54;103041.72;;;5.71
18161;BMP280;9205;52.032;4.314;2023-01-28T02:04:27;103045.09;;;5.70
18161;BMP280;9205;52.032;4.314;2023-01-28T02:06:59;103044.41;;;5.76
18161;BMP280;9205;52.032;4.314;2023-01-28T02:09:30;103044.34;;;5.74
18161;BMP280;9205;52.032;4.314;2023-01-28T02:12:02;103053.75;;;5.78
18161;BMP280;9205;52.032;4.314;2023-01-28T02:14:34;103050.34;;;5.76
18161;BMP280;9205;52.032;4.314;2023-01-28T02:17:03;103050.34;;;5.76
18161;BMP280;9205;52.032;4.314;2023-01-28T02:19:37;103055.59;;;5.82
18161;BMP280;9205;52.032;4.314;2023-01-28T02:22:39;103059.97;;;5.88
18161;BMP280;9205;52.032;4.314;2023-01-28T02:25:58;103069.34;;;5.92
18161;BMP280;9205;52.032;4.314;2023-01-28T02:28:36;103071.09;;;5.94
18161;BMP280;9205;52.032;4.314;2023-01-28T02:31:11;103061.78;;;5.92
18161;BMP280;9205;52.032;4.314;2023-01-28T02:33:48;103064.25;;;5.90
18161;BMP280;9205;52.032;4.314;2023-01-28T02:36:26;103064.25;;;5.90
18161;BMP280;9205;52.032;4.314;2023-01-28T02:39:02;103055.88;;;5.91
18161;BMP280;9205;52.032;4.314;2023-01-28T02:41:40;103050.72;;;5.88
18161;BMP280;9205;52.032;4.314;2023-01-28T02:44:11;103057.50;;;5.89
18161;BMP280;9205;52.032;4.314;2023-01-28T02:46:38;103056.59;;;5.87
18161;BMP280;9205;52.032;4.314;2023-01-28T02:49:27;103056.72;;;5.92
18161;BMP280;9205;52.032;4.314;2023-01-28T02:52:24;103051.53;;;5.87
18161;BMP280;9205;52.032;4.314;2023-01-28T02:55:17;103061.59;;;5.86
18161;BMP280;9205;52.032;4.314;2023-01-28T02:58:00;103060.78;;;5.87
18161;BMP280;9205;52.032;4.314;2023-01-28T03:00:45;103069.00;;;5.81
18161;BMP280;9205;52.032;4.314;2023-01-28T03:03:24;103062.59;;;5.66
18161;BMP280;9205;52.032;4.314;2023-01-28T03:05:58;103068.59;;;5.69
18161;BMP280;9205;52.032;4.314;2023-01-28T03:08:41;103071.28;;;5.74
18161;BMP280;9205;52.032;4.314;2023-01-28T03:11:30;103065.16;;;5.67
18161;BMP280;9205;52.032;4.314;2023-01-28T03:14:17;103059.94;;;5.63
18161;BMP280;9205;52.032;4.314;2023-01-28T03:17:07;103056.94;;;5.73
18161;BMP280;9205;52.032;4.314;2023-01-28T03:19:56;103058.69;;;5.75
18161;BMP280;9205;52.032;4.314;2023-01-28T03:22:45;103058.50;;;5.69
18161;BMP280;9205;52.032;4.314;2023-01-28T03:25:34;103054.06;;;5.62
18161;BMP280;9205;52.032;4.314;2023-01-28T03:28:20;103047.38;;;5.64
18161;BMP280;9205;52.032;4.314;2023-01-28T03:31:09;103055.88;;;5.66
18161;BMP280;9205;52.032;4.314;2023-01-28T03:33:59;103059.81;;;5.58
18161;BMP280;9205;52.032;4.314;2023-01-28T03:36:45;103046.50;;;5.62
18161;BMP280;9205;52.032;4.314;2023-01-28T03:39:31;103049.03;;;5.62
18161;BMP280;9205;52.032;4.314;2023-01-28T03:42:02;103059.22;;;5.67
18161;BMP280;9205;52.032;4.314;2023-01-28T03:44:31;103060.34;;;5.75
18161;BMP280;9205;52.032;4.314;2023-01-28T03:47:20;103061.41;;;5.80
18161;BMP280;9205;52.032;4.314;2023-01-28T03:49:52;103071.50;;;5.80
18161;BMP280;9205;52.032;4.314;2023-01-28T03:52:24;103070.88;;;5.87
18161;BMP280;9205;52.032;4.314;2023-01-28T03:54:54;103073.38;;;5.85
18161;BMP280;9205;52.032;4.314;2023-01-28T03:57:25;103082.53;;;5.83
18161;BMP280;9205;52.032;4.314;2023-01-28T03:59:52;103089.19;;;5.81
18161;BMP280;9205;52.032;4.314;2023-01-28T04:02:22;103087.53;;;5.82
18161;BMP280;9205;52.032;4.314;2023-01-28T04:04:53;103076.53;;;5.80
18161;BMP280;9205;52.032;4.314;2023-01-28T04:07:21;103081.63;;;5.81
18161;BMP280;9205;52.032;4.314;2023-01-28T04:10:08;103086.09;;;5.90
18161;BMP280;9205;52.032;4.314;2023-01-28T04:12:48;103089.47;;;5.89
18161;BMP280;9205;52.032;4.314;2023-01-28T04:15:19;103087.78;;;5.89
18161;BMP280;9205;52.032;4.314;2023-01-28T04:17:51;103082.38;;;5.79
18161;BMP280;9205;52.032;4.314;2023-01-28T04:20:30;103077.47;;;5.82
18161;BMP280;9205;52.032;4.314;2023-01-28T04:22:59;103071.56;;;5.83
18161;BMP280;9205;52.032;4.314;2023-01-28T04:25:27;103067.91;;;5.75
18161;BMP280;9205;52.032;4.314;2023-01-28T04:27:55;103074.81;;;5.79
18161;BMP280;9205;52.032;4.314;2023-01-28T04:30:25;103069.81;;;5.80
18161;BMP280;9205;52.032;4.314;2023-01-28T04:33:22;103064.38;;;5.70
18161;BMP280;9205;52.032;4.314;2023-01-28T04:36:10;103066.94;;;5.71
18161;BMP280;9205;52.032;4.314;2023-01-28T04:38:58;103064.38;;;5.70
18161;BMP280;9205;52.032;4.314;2023-01-28T04:41:37;103059.47;;;5.73
18161;BMP280;9205;52.032;4.314;2023-01-28T04:44:13;103068.66;;;5.72
18161;BMP280;9205;52.032;4.314;2023-01-28T04:47:01;103055.75;;;5.63
18161;BMP280;9205;52.032;4.314;2023-01-28T04:49:40;103056.63;;;5.64
18161;BMP280;9205;52.032;4.314;2023-01-28T04:52:26;103055.75;;;5.63
18161;BMP280;9205;52.032;4.314;2023-01-28T04:55:09;103054.06;;;5.62
18161;BMP280;9205;52.032;4.314;2023-01-28T04:57:36;103055.59;;;5.59
18161;BMP280;9205;52.032;4.314;2023-01-28T05:00:08;103071.50;;;5.56
18161;BMP280;9205;52.032;4.314;2023-01-28T05:02:35;103078.25;;;5.57
18161;BMP280;9205;52.032;4.314;2023-01-28T05:05:03;103083.34;;;5.59
18161;BMP280;9205;52.032;4.314;2023-01-28T05:07:56;103074.94;;;5.58
18161;BMP280;9205;52.032;4.314;2023-01-28T05:10:25;103081.75;;;5.61
18161;BMP280;9205;52.032;4.314;2023-01-28T05:12:54;103078.53;;;5.65
18161;BMP280;9205;52.032;4.314;2023-01-28T05:15:21;103079.38;;;5.65
18161;BMP280;9205;52.032;4.314;2023-01-28T05:17:54;103070.16;;;5.66
18161;BMP280;9205;52.032;4.314;2023-01-28T05:20:22;103065.97;;;5.66
18161;BMP280;9205;52.032;4.314;2023-01-28T05:22:50;103062.75;;;5.70
18161;BMP280;9205;52.032;4.314;2023-01-28T05:25:22;103050.00;;;5.67
18161;BMP280;9205;52.032;4.314;2023-01-28T05:27:50;103054.16;;;5.65
18161;BMP280;9205;52.032;4.314;2023-01-28T05:30:19;103066.91;;;5.70
18161;BMP280;9205;52.032;4.314;2023-01-28T05:32:47;103066.75;;;5.65
18161;BMP280;9205;52.032;4.314;2023-01-28T05:35:17;103060.00;;;5.64
18161;BMP280;9205;52.032;4.314;2023-01-28T05:37:44;103060.75;;;5.62
18161;BMP280;9205;52.032;4.314;2023-01-28T05:40:12;103053.16;;;5.60
18161;BMP280;9205;52.032;4.314;2023-01-28T05:42:41;103069.13;;;5.61
18161;BMP280;9205;52.032;4.314;2023-01-28T05:45:31;103064.97;;;5.61
18161;BMP280;9205;52.032;4.314;2023-01-28T05:48:02;103060.72;;;5.60
18161;BMP280;9205;52.032;4.314;2023-01-28T05:50:47;103059.91;;;5.61
18161;BMP280;9205;52.032;4.314;2023-01-28T05:53:20;103059.19;;;5.65
18161;BMP280;9205;52.032;4.314;2023-01-28T05:55:50;103055.03;;;5.66
18161;BMP280;9205;52.032;4.314;2023-01-28T05:58:20;103063.13;;;5.57
18161;BMP280;9205;52.032;4.314;2023-01-28T06:00:47;103063.16;;;5.59
18161;BMP280;9205;52.032;4.314;2023-01-28T06:03:19;103059.81;;;5.58
18161;BMP280;9205;52.032;4.314;2023-01-28T06:05:47;103061.63;;;5.62
18161;BMP280;9205;52.032;4.314;2023-01-28T06:08:15;103060.72;;;5.60
18161;BMP280;9205;52.032;4.314;2023-01-28T06:10:42;103062.44;;;5.61
18161;BMP280;9205;52.032;4.314;2023-01-28T06:13:10;103059.91;;;5.61
18161;BMP280;9205;52.032;4.314;2023-01-28T06:16:17;103077.56;;;5.61
18161;BMP280;9205;52.032;4.314;2023-01-28T06:18:59;103073.41;;;5.63
18161;BMP280;9205;52.032;4.314;2023-01-28T06:21:26;103075.13;;;5.64
18161;BMP280;9205;52.032;4.314;2023-01-28T06:23:54;103082.81;;;5.67
18161;BMP280;9205;52.032;4.314;2023-01-28T06:26:21;103080.41;;;5.70
18161;BMP280;9205;52.032;4.314;2023-01-28T06:28:50;103078.75;;;5.72
18161;BMP280;9205;52.032;4.314;2023-01-28T06:31:19;103082.16;;;5.73
18161;BMP280;9205;52.032;4.314;2023-01-28T06:33:46;103087.97;;;5.70
18161;BMP280;9205;52.032;4.314;2023-01-28T06:36:13;103083.78;;;5.71
18161;BMP280;9205;52.032;4.314;2023-01-28T06:38:40;103087.84;;;5.67
18161;BMP280;9205;52.032;4.314;2023-01-28T06:41:08;103086.13;;;5.66
18161;BMP280;9205;52.032;4.314;2023-01-28T06:43:35;103083.56;;;5.65
18161;BMP280;9205;52.032;4.314;2023-01-28T06:46:02;103090.38;;;5.67
18161;BMP280;9205;52.032;4.314;2023-01-28T06:48:31;103084.34;;;5.62
18161;BMP280;9205;52.032;4.314;2023-01-28T06:50:58;103078.38;;;5.60
18161;BMP280;9205;52.032;4.314;2023-01-28T06:53:26;103080.00;;;5.60
18161;BMP280;9205;52.032;4.314;2023-01-28T06:55:53;103082.09;;;5.71
18161;BMP280;9205;52.032;4.314;2023-01-28T06:58:20;103081.34;;;5.74
18161;BMP280;9205;52.032;4.314;2023-01-28T07:00:47;103083.03;;;5.75
18161;BMP280;9205;52.032;4.314;2023-01-28T07:03:15;103083.81;;;5.72
18161;BMP280;9205;52.032;4.314;2023-01-28T07:05:43;103080.53;;;5.75
18161;BMP280;9205;52.032;4.314;2023-01-28T07:08:11;103089.72;;;5.73
18161;BMP280;9205;52.032;4.314;2023-01-28T07:10:38;103093.69;;;5.66
18161;BMP280;9205;52.032;4.314;2023-01-28T07:13:05;103083.63;;;5.66
18161;BMP280;9205;52.032;4.314;2023-01-28T07:15:32;103082.16;;;5.73
18161;BMP280;9205;52.032;4.314;2023-01-28T07:18:00;103094.13;;;5.78
18161;BMP280;9205;52.032;4.314;2023-01-28T07:20:27;103101.69;;;5.78
18161;BMP280;9205;52.032;4.314;2023-01-28T07:22:56;103097.34;;;5.74
18161;BMP280;9205;52.032;4.314;2023-01-28T07:25:23;103096.53;;;5.75
18161;BMP280;9205;52.032;4.314;2023-01-28T07:27:52;103100.66;;;5.73
18161;BMP280;9205;52.032;4.314;2023-01-28T07:30:20;103092.44;;;5.77
18161;BMP280;9205;52.032;4.314;2023-01-28T07:32:53;103095.84;;;5.79
18161;BMP280;9205;52.032;4.314;2023-01-28T07:35:21;103094.97;;;5.77
18161;BMP280;9205;52.032;4.314;2023-01-28T07:37:52;103098.28;;;5.76
18161;BMP280;9205;52.032;4.314;2023-01-28T07:40:21;103105.84;;;5.76
18161;BMP280;9205;52.032;4.314;2023-01-28T07:42:48;103112.63;;;5.77
18161;BMP280;9205;52.032;4.314;2023-01-28T07:45:21;103112.63;;;5.77
18161;BMP280;9205;52.032;4.314;2023-01-28T07:47:57;103107.56;;;5.77
18161;BMP280;9205;52.032;4.314;2023-01-28T07:50:26;103102.56;;;5.79
18161;BMP280;9205;52.032;4.314;2023-01-28T07:52:57;103109.09;;;5.74
18161;BMP280;9205;52.032;4.314;2023-01-28T07:55:26;103120.88;;;5.75
18161;BMP280;9205;52.032;4.314;2023-01-28T07:57:55;103112.31;;;5.70
18161;BMP280;9205;52.032;4.314;2023-01-28T08:00:25;103106.50;;;5.72
18161;BMP280;9205;52.032;4.314;2023-01-28T08:02:55;103126.69;;;5.72
18161;BMP280;9205;52.032;4.314;2023-01-28T08:05:24;103127.63;;;5.74
18161;BMP280;9205;52.032;4.314;2023-01-28T08:07:52;103125.88;;;5.73
18161;BMP280;9205;52.032;4.314;2023-01-28T08:10:20;103129.22;;;5.72
18161;BMP280;9205;52.032;4.314;2023-01-28T08:12:53;103128.56;;;5.76
18161;BMP280;9205;52.032;4.314;2023-01-28T08:15:21;103131.13;;;5.78
18161;BMP280;9205;52.032;4.314;2023-01-28T08:17:48;103127.63;;;5.74
18161;BMP280;9205;52.032;4.314;2023-01-28T08:20:16;103129.34;;;5.75
18161;BMP280;9205;52.032;4.314;2023-01-28T08:22:43;103132.69;;;5.76
18161;BMP280;9205;52.032;4.314;2023-01-28T08:25:11;103145.16;;;5.71
18161;BMP280;9205;52.032;4.314;2023-01-28T08:27:38;103140.81;;;5.67
18161;BMP280;9205;52.032;4.314;2023-01-28T08:30:09;103159.72;;;5.78
18161;BMP280;9205;52.032;4.314;2023-01-28T08:32:37;103152.31;;;5.83
18161;BMP280;9205;52.032;4.314;2023-01-28T08:35:05;103153.19;;;5.83
18161;BMP280;9205;52.032;4.314;2023-01-28T08:37:33;103161.41;;;5.78
18161;BMP280;9205;52.032;4.314;2023-01-28T08:40:00;103157.75;;;5.71
18161;BMP280;9205;52.032;4.314;2023-01-28T08:42:27;103162.81;;;5.71
18161;BMP280;9205;52.032;4.314;2023-01-28T08:44:54;103152.03;;;5.75
18161;BMP280;9205;52.032;4.314;2023-01-28T08:47:23;103149.31;;;5.69
18161;BMP280;9205;52.032;4.314;2023-01-28T08:49:50;103151.28;;;5.76
18161;BMP280;9205;52.032;4.314;2023-01-28T08:52:17;103154.69;;;5.78
18161;BMP280;9205;52.032;4.314;2023-01-28T08:54:45;103158.03;;;5.77
18161;BMP280;9205;52.032;4.314;2023-01-28T08:57:12;103162.13;;;5.75
18161;BMP280;9205;52.032;4.314;2023-01-28T08:59:39;103162.81;;;5.71
18161;BMP280;9205;52.032;4.314;2023-01-28T09:02:12;103164.44;;;5.69
18161;BMP280;9205;52.032;4.314;2023-01-28T09:04:42;103169.59;;;5.72
18161;BMP280;9205;52.032;4.314;2023-01-28T09:07:09;103162.94;;;5.74
18161;BMP280;9205;52.032;4.314;2023-01-28T09:09:36;103164.44;;;5.69
18161;BMP280;9205;52.032;4.314;2023-01-28T09:12:04;103172.19;;;5.74
18161;BMP280;9205;52.032;4.314;2023-01-28T09:14:33;103181.63;;;5.79
18161;BMP280;9205;52.032;4.314;2023-01-28T09:17:00;103174.28;;;5.85
18161;BMP280;9205;52.032;4.314;2023-01-28T09:19:27;103182.81;;;5.89
18161;BMP280;9205;52.032;4.314;2023-01-28T09:21:56;103206.56;;;5.95
18161;BMP280;9205;52.032;4.314;2023-01-28T09:24:24;103199.88;;;5.96
18161;BMP280;9205;52.032;4.314;2023-01-28T09:26:51;103196.41;;;5.92
18161;BMP280;9205;52.032;4.314;2023-01-28T09:29:18;103203.25;;;5.96
18161;BMP280;9205;52.032;4.314;2023-01-28T09:31:45;103204.16;;;5.98
18161;BMP280;9205;52.032;4.314;2023-01-28T09:34:13;103205.97;;;6.02
18161;BMP280;9205;52.032;4.314;2023-01-28T09:36:40;103212.94;;;6.09
18161;BMP280;9205;52.032;4.314;2023-01-28T09:39:09;103210.53;;;6.12
18161;BMP280;9205;52.032;4.314;2023-01-28T09:41:53;103209.00;;;6.17
18161;BMP280;9205;52.032;4.314;2023-01-28T09:44:46;103210.19;;;6.26
18161;BMP280;9205;52.032;4.314;2023-01-28T09:47:25;103211.75;;;6.23
18161;BMP280;9205;52.032;4.314;2023-01-28T09:49:56;103207.84;;;6.08
18161;BMP280;9205;52.032;4.314;2023-01-28T09:52:25;103210.28;;;6.05
18161;BMP280;9205;52.032;4.314;2023-01-28T09:55:03;103203.59;;;6.07
18161;BMP280;9205;52.032;4.314;2023-01-28T09:57:39;103206.50;;;6.17
18161;BMP280;9205;52.032;4.314;2023-01-28T10:00:14;103210.84;;;6.21
18161;BMP280;9205;52.032;4.314;2023-01-28T10:03:00;103224.59;;;6.29
18161;BMP280;9205;52.032;4.314;2023-01-28T10:05:39;103223.16;;;6.37
18161;BMP280;9205;52.032;4.314;2023-01-28T10:08:25;103225.13;;;6.45
18161;BMP280;9205;52.032;4.314;2023-01-28T10:11:05;103232.63;;;6.42
18161;BMP280;9205;52.032;4.314;2023-01-28T10:13:45;103219.84;;;6.38
18161;BMP280;9205;52.032;4.314;2023-01-28T10:16:28;103212.44;;;6.44
18161;BMP280;9205;52.032;4.314;2023-01-28T10:19:04;103214.88;;;6.41
18161;BMP280;9205;52.032;4.314;2023-01-28T10:21:40;103213.28;;;6.44
18161;BMP280;9205;52.032;4.314;2023-01-28T10:24:16;103208.34;;;6.47
18161;BMP280;9205;52.032;4.314;2023-01-28T10:26:46;103210.19;;;6.51
18161;BMP280;9205;52.032;4.314;2023-01-28T10:29:18;103206.66;;;6.48
18161;BMP280;9205;52.032;4.314;2023-01-28T10:31:52;103211.03;;;6.52
18161;BMP280;9205;52.032;4.314;2023-01-28T10:34:21;103210.19;;;6.51
18161;BMP280;9205;52.032;4.314;2023-01-28T10:36:50;103212.94;;;6.59
18161;BMP280;9205;52.032;4.314;2023-01-28T10:39:21;103215.03;;;6.72
18161;BMP280;9205;52.032;4.314;2023-01-28T10:41:51;103205.03;;;6.75
18161;BMP280;9205;52.032;4.314;2023-01-28T10:44:37;103210.88;;;6.74
18161;BMP280;9205;52.032;4.314;2023-01-28T10:47:14;103198.34;;;6.77
18161;BMP280;9205;52.032;4.314;2023-01-28T10:49:49;103196.91;;;6.85
18161;BMP280;9205;52.032;4.314;2023-01-28T10:52:19;103183.41;;;6.84
18161;BMP280;9205;52.032;4.314;2023-01-28T10:54:46;103176.50;;;6.79
18161;BMP280;9205;52.032;4.314;2023-01-28T10:57:17;103179.09;;;6.80
18161;BMP280;9205;52.032;4.314;2023-01-28T10:59:45;103170.09;;;6.90
18161;BMP280;9205;52.032;4.314;2023-01-28T11:02:28;103155.47;;;7.07
18161;BMP280;9205;52.032;4.314;2023-01-28T11:05:13;103140.03;;;6.98
18161;BMP280;9205;52.032;4.314;2023-01-28T11:07:42;103135.84;;;6.99
18161;BMP280;9205;52.032;4.314;2023-01-28T11:10:30;103140.84;;;6.97
18161;BMP280;9205;52.032;4.314;2023-01-28T11:13:02;103135.06;;;7.01
18161;BMP280;9205;52.032;4.314;2023-01-28T11:15:31;103130.09;;;7.04
18161;BMP280;9205;52.032;4.314;2023-01-28T11:18:16;103123.31;;;7.03
18161;BMP280;9205;52.032;4.314;2023-01-28T11:20:52;103105.63;;;7.03
18161;BMP280;9205;52.032;4.314;2023-01-28T11:23:26;103104.03;;;7.07
18161;BMP280;9205;52.032;4.314;2023-01-28T11:26:03;103098.03;;;7.03
18161;BMP280;9205;52.032;4.314;2023-01-28T11:28:39;103102.44;;;7.09
18161;BMP280;9205;52.032;4.314;2023-01-28T11:31:09;103083.81;;;7.07
18161;BMP280;9205;52.032;4.314;2023-01-28T11:33:43;103079.03;;;7.16
18161;BMP280;9205;52.032;4.314;2023-01-28T11:36:15;103068.94;;;7.17
18161;BMP280;9205;52.032;4.314;2023-01-28T11:38:52;103083.81;;;7.07
18161;BMP280;9205;52.032;4.314;2023-01-28T11:41:27;103098.22;;;7.09
18161;BMP280;9205;52.032;4.314;2023-01-28T11:43:58;103115.16;;;7.12
18161;BMP280;9205;52.032;4.314;2023-01-28T11:46:50;103097.75;;;7.22
18161;BMP280;9205;52.032;4.314;2023-01-28T11:49:36;103091.94;;;7.26
18161;BMP280;9205;52.032;4.314;2023-01-28T11:52:17;103094.53;;;7.28
18161;BMP280;9205;52.032;4.314;2023-01-28T11:54:59;103099.78;;;7.35
18161;BMP280;9205;52.032;4.314;2023-01-28T11:57:40;103103.94;;;7.33
18161;BMP280;9205;52.032;4.314;2023-01-28T12:00:37;103106.00;;;7.46
18161;BMP280;9205;52.032;4.314;2023-01-28T12:03:38;103104.53;;;7.54
18161;BMP280;9205;52.032;4.314;2023-01-28T12:06:30;103118.78;;;7.51
18161;BMP280;9205;52.032;4.314;2023-01-28T12:09:14;103126.81;;;7.69
18161;BMP280;9205;52.032;4.314;2023-01-28T12:11:58;103136.22;;;7.73
18161;BMP280;9205;52.032;4.314;2023-01-28T12:15:00;103141.44;;;7.78
18161;BMP280;9205;52.032;4.314;2023-01-28T12:17:47;103141.72;;;7.90
18161;BMP280;9205;52.032;4.314;2023-01-28T12:20:27;103153.69;;;7.96
18161;BMP280;9205;52.032;4.314;2023-01-28T12:23:18;103147.81;;;7.97
18161;BMP280;9205;52.032;4.314;2023-01-28T12:26:05;103150.31;;;7.95
18161;BMP280;9205;52.032;4.314;2023-01-28T12:28:59;103134.25;;;7.95
18161;BMP280;9205;52.032;4.314;2023-01-28T12:32:12;103130.03;;;7.94
18161;BMP280;9205;52.032;4.314;2023-01-28T12:35:18;103118.78;;;7.83
18161;BMP280;9205;52.032;4.314;2023-01-28T12:37:59;103102.00;;;7.88
18161;BMP280;9205;52.032;4.314;2023-01-28T12:41:00;103093.63;;;7.90
18161;BMP280;9205;52.032;4.314;2023-01-28T12:43:44;103076.94;;;7.97
18161;BMP280;9205;52.032;4.314;2023-01-28T12:46:24;103056.91;;;8.07
18161;BMP280;9205;52.032;4.314;2023-01-28T12:48:59;103060.38;;;8.11
18161;BMP280;9205;52.032;4.314;2023-01-28T12:51:40;103040.19;;;8.14
18161;BMP280;9205;52.032;4.314;2023-01-28T12:54:18;103040.34;;;8.20
18161;BMP280;9205;52.032;4.314;2023-01-28T12:56:52;103026.16;;;8.26
18161;BMP280;9205;52.032;4.314;2023-01-28T12:59:27;103025.97;;;8.19
18161;BMP280;9205;52.032;4.314;2023-01-28T13:02:05;103030.84;;;8.11
18161;BMP280;9205;52.032;4.314;2023-01-28T13:04:49;103031.69;;;8.10
18161;BMP280;9205;52.032;4.314;2023-01-28T13:07:25;103025.00;;;8.14
18161;BMP280;9205;52.032;4.314;2023-01-28T13:10:02;103014.66;;;8.05
18161;BMP280;9205;52.032;4.314;2023-01-28T13:12:31;103026.44;;;8.03
18161;BMP280;9205;52.032;4.314;2023-01-28T13:14:59;103026.50;;;8.06
18161;BMP280;9205;52.032;4.314;2023-01-28T13:17:29;103026.63;;;8.10
18161;BMP280;9205;52.032;4.314;2023-01-28T13:19:58;103033.28;;;8.07
18161;BMP280;9205;52.032;4.314;2023-01-28T13:22:30;103031.56;;;8.06
18161;BMP280;9205;52.032;4.314;2023-01-28T13:25:18;103024.22;;;8.15
18161;BMP280;9205;52.032;4.314;2023-01-28T13:27:56;103036.88;;;8.15
18161;BMP280;9205;52.032;4.314;2023-01-28T13:30:27;103033.59;;;8.19
18161;BMP280;9205;52.032;4.314;2023-01-28T13:32:58;103028.59;;;8.22
18161;BMP280;9205;52.032;4.314;2023-01-28T13:35:34;103032.06;;;8.27
18161;BMP280;9205;52.032;4.314;2023-01-28T13:38:18;103044.22;;;8.41
18161;BMP280;9205;52.032;4.314;2023-01-28T13:40:55;103048.50;;;8.44
18161;BMP280;9205;52.032;4.314;2023-01-28T13:43:35;103051.59;;;8.31
18161;BMP280;9205;52.032;4.314;2023-01-28T13:46:07;103060.16;;;8.37
18161;BMP280;9205;52.032;4.314;2023-01-28T13:48:43;103049.13;;;8.34
18161;BMP280;9205;52.032;4.314;2023-01-28T13:51:19;103043.09;;;8.29
18161;BMP280;9205;52.032;4.314;2023-01-28T13:53:55;103039.75;;;8.30
18161;BMP280;9205;52.032;4.314;2023-01-28T13:56:29;103035.25;;;8.17
18161;BMP280;9205;52.032;4.314;2023-01-28T13:59:27;103031.06;;;8.19
18161;BMP280;9205;52.032;4.314;2023-01-28T14:02:35;103035.31;;;8.21
18161;BMP280;9205;52.032;4.314;2023-01-28T14:08:38;103037.00;;;8.21
18161;BMP280;9205;52.032;4.314;2023-01-28T14:11:29;103047.06;;;8.18
18161;BMP280;9205;52.032;4.314;2023-01-28T14:14:36;103061.63;;;8.26
18161;BMP280;9205;52.032;4.314;2023-01-28T14:17:13;103061.59;;;8.25
18161;BMP280;9205;52.032;4.314;2023-01-28T14:19:44;103054.75;;;8.21
18161;BMP280;9205;52.032;4.314;2023-01-28T14:22:18;103043.78;;;8.22
18161;BMP280;9205;52.032;4.314;2023-01-28T14:24:47;103047.13;;;8.21
18161;BMP280;9205;52.032;4.314;2023-01-28T14:27:19;103045.44;;;8.20
18161;BMP280;9205;52.032;4.314;2023-01-28T14:30:02;103057.19;;;8.18
18161;BMP280;9205;52.032;4.314;2023-01-28T14:32:32;103043.72;;;8.19
18161;BMP280;9205;52.032;4.314;2023-01-28T14:35:06;103043.72;;;8.19
18161;BMP280;9205;52.032;4.314;2023-01-28T14:37:35;103034.38;;;8.16
18161;BMP280;9205;52.032;4.314;2023-01-28T14:40:06;103030.22;;;8.20
18161;BMP280;9205;52.032;4.314;2023-01-28T14:42:40;103028.59;;;8.22
18161;BMP280;9205;52.032;4.314;2023-01-28T14:45:30;103034.50;;;8.22
18161;BMP280;9205;52.032;4.314;2023-01-28T14:48:23;103042.00;;;8.18
18161;BMP280;9205;52.032;4.314;2023-01-28T14:51:23;103047.94;;;8.18
18161;BMP280;9205;52.032;4.314;2023-01-28T14:54:30;103041.00;;;8.11
18161;BMP280;9205;52.032;4.314;2023-01-28T14:57:20;103052.75;;;8.09
18161;BMP280;9205;52.032;4.314;2023-01-28T14:59:57;103051.97;;;8.12
18161;BMP280;9205;52.032;4.314;2023-01-28T15:02:28;103054.47;;;8.10
18161;BMP280;9205;52.032;4.314;2023-01-28T15:05:08;103060.44;;;8.12
18161;BMP280;9205;52.032;4.314;2023-01-28T15:07:36;103063.78;;;8.11
18161;BMP280;9205;52.032;4.314;2023-01-28T15:10:06;103076.47;;;8.13